Airfield :
LOGIN :

Register | Disclaimer

   EN    FR    IT 

 










Legend :    VFR   Marginal VFR   IFR   Intensive IFR   Very Intensive IFR
Visi :
Ceiling :
>= 8 km
>= 3000ft
5 to 8 km
1000 to 3000 ft
1500m to 5 km
500 to 1000 ft
800 to 1500m
200 to 500 ft
< 800m
< 200 ft
Symbols :   Thunderstorms  Fog  Heavy snow  Heavy precipitations  Wind > 20 kt
SIGMETs :     Misc.  Thunderstorms  Icing  Turbulence  Mountain Waves  Volcanic Ashes







- Airport Elevation : 2026 ft
- IATA code : TOJ


LETO - Madrid Torrejon

CURRENT METAR :
  • 231900Z 16004KT 9999 FEW019 SCT027 04/01 Q1011 NOSIG

EXPIRED METARs :
  • 231800Z 17004KT 140V200 9999 FEW019 BKN025TCU 05/02 Q1010 NOSIG
  • 231700Z 15005KT 120V180 9999 FEW012 BKN017TCU 04/02 Q1010 NOSIG

TAF TAF LETO
Valid from the 23 at 18:00 until the 24 at 18:00 UTC


231700Z 2318/2418 VRB05KT 9999 FEW010 SCT020 TX10/2415Z TN00/2407Z
TEMPO 2318/2324 SCT015TCU
PROB30
TEMPO 2318/2322 4000 SHSNRA SCT010TCU BKN012
PROB40
TEMPO 2322/2407 2000 BR
PROB30
TEMPO 2407/2410 4000 -SN BKN006
TEMPO 2410/2418 SHRA SCT020TCU
PROB30
TEMPO 2410/2418 VRB15G25KT 4000 TSRA SCT020CB
No reported NOTAMs for that airfield.



MET'MAP, your aeronautical weather chart ! - Copyright ORBIFLY December 2007 - Disclaimer

ORBIFLY MET'MAP TEAM :

Programming & Development : Alexandra Zaïnal
Concept & Development : Baudouin d'Aumeries
Co-Development & Prog : Marc-Olivier Méhu
Technical & hardware support : Manuel Goepfert

Contact : metmap@orbifly.com




SOURCES & CREDITS :

   NOAA